createdAt,value
2023-01-25T00:02:09.148Z,103335.75
2023-01-25T00:04:35.965Z,103340.50
2023-01-25T00:07:02.679Z,103332.25
2023-01-25T00:09:29.410Z,103330.84
2023-01-25T00:11:58.139Z,103326.06
2023-01-25T00:14:25.504Z,103321.75
2023-01-25T00:16:52.538Z,103318.28
2023-01-25T00:19:19.755Z,103314.41
2023-01-25T00:21:46.654Z,103317.44
2023-01-25T00:24:14.529Z,103302.94
2023-01-25T00:26:44.114Z,103303.00
2023-01-25T00:29:14.261Z,103308.31
2023-01-25T00:32:07.941Z,103302.84
2023-01-25T00:34:44.101Z,103299.97
2023-01-25T00:37:21.146Z,103297.63
2023-01-25T00:39:48.222Z,103296.53
2023-01-25T00:42:16.504Z,103293.44
2023-01-25T00:44:45.042Z,103300.25
2023-01-25T00:47:12.439Z,103286.56
2023-01-25T00:49:40.539Z,103284.75
2023-01-25T00:52:07.967Z,103293.31
2023-01-25T00:54:35.108Z,103298.09
2023-01-25T00:57:02.700Z,103304.50
2023-01-25T00:59:29.620Z,103288.00
2023-01-25T01:01:56.656Z,103289.56
2023-01-25T01:04:26.416Z,103288.75
2023-01-25T01:06:54.190Z,103285.88
2023-01-25T01:09:21.697Z,103288.06
2023-01-25T01:11:48.574Z,103285.28
2023-01-25T01:14:18.277Z,103289.31
2023-01-25T01:16:45.311Z,103289.84
2023-01-25T01:19:12.239Z,103279.00
2023-01-25T01:21:39.229Z,103273.72
2023-01-25T01:24:06.656Z,103282.00
2023-01-25T01:26:33.592Z,103277.13
2023-01-25T01:29:00.366Z,103260.69
2023-01-25T01:31:27.351Z,103263.09
2023-01-25T01:34:19.086Z,103271.09
2023-01-25T01:36:46.204Z,103272.09
2023-01-25T01:39:12.955Z,103274.69
2023-01-25T01:41:40.468Z,103274.06
2023-01-25T01:44:16.687Z,103277.19
2023-01-25T01:46:52.080Z,103285.75
2023-01-25T01:49:28.115Z,103280.72
2023-01-25T01:52:03.517Z,103291.13
2023-01-25T01:54:38.429Z,103293.38
2023-01-25T01:57:09.458Z,103284.22
2023-01-25T01:59:55.938Z,103276.44
2023-01-25T02:02:26.037Z,103285.78
2023-01-25T02:04:58.562Z,103280.56
2023-01-25T02:07:36.933Z,103285.81
2023-01-25T02:10:05.672Z,103276.97
2023-01-25T02:12:32.854Z,103272.88
2023-01-25T02:15:00.357Z,103278.97
2023-01-25T02:17:32.788Z,103291.69
2023-01-25T02:20:20.773Z,103284.97
2023-01-25T02:23:11.236Z,103279.31
2023-01-25T02:25:38.156Z,103278.56
2023-01-25T02:28:23.753Z,103278.06
2023-01-25T02:30:50.946Z,103269.13
2023-01-25T02:33:18.578Z,103281.50
2023-01-25T02:35:51.537Z,103266.63
2023-01-25T02:38:21.253Z,103268.59
2023-01-25T02:40:57.973Z,103265.47
2023-01-25T02:43:28.434Z,103266.94
2023-01-25T02:46:00.741Z,103276.81
2023-01-25T02:48:27.720Z,103274.34
2023-01-25T02:50:54.514Z,103275.59
2023-01-25T02:53:21.348Z,103259.63
2023-01-25T02:55:48.104Z,103270.03
2023-01-25T02:58:14.975Z,103271.50
2023-01-25T03:00:41.782Z,103262.94
2023-01-25T03:03:08.797Z,103255.22
2023-01-25T03:05:35.621Z,103253.81
2023-01-25T03:08:02.344Z,103253.69
2023-01-25T03:10:29.065Z,103254.88
2023-01-25T03:12:55.961Z,103252.88
2023-01-25T03:15:23.547Z,103250.59
2023-01-25T03:17:50.397Z,103240.06
2023-01-25T03:20:18.579Z,103253.00
2023-01-25T03:22:45.332Z,103243.28
2023-01-25T03:25:12.203Z,103233.66
2023-01-25T03:27:45.837Z,103242.88
2023-01-25T03:30:13.035Z,103240.91
2023-01-25T03:32:40.411Z,103241.59
2023-01-25T03:35:10.913Z,103239.03
2023-01-25T03:37:38.306Z,103238.84
2023-01-25T03:40:06.220Z,103239.41
2023-01-25T03:42:33.451Z,103238.28
2023-01-25T03:45:00.339Z,103233.03
2023-01-25T03:47:28.671Z,103225.19
2023-01-25T03:49:55.666Z,103227.34
2023-01-25T03:53:37.149Z,103219.75
2023-01-25T03:56:11.882Z,103226.25
2023-01-25T03:58:45.048Z,103220.00
2023-01-25T04:01:12.602Z,103215.78
2023-01-25T04:03:39.485Z,103208.41
2023-01-25T04:06:06.890Z,103217.28
2023-01-25T04:08:34.415Z,103220.09
2023-01-25T04:11:06.465Z,103220.84
2023-01-25T04:13:36.798Z,103221.34
2023-01-25T04:16:11.848Z,103219.97
2023-01-25T04:18:57.859Z,103216.69
2023-01-25T04:21:25.267Z,103216.69
2023-01-25T04:23:52.234Z,103212.44
2023-01-25T04:26:19.141Z,103207.59
2023-01-25T04:28:52.693Z,103198.59
2023-01-25T04:31:19.673Z,103212.44
2023-01-25T04:33:46.818Z,103204.88
2023-01-25T04:36:17.015Z,103206.53
2023-01-25T04:38:44.583Z,103208.28
2023-01-25T04:41:11.691Z,103210.81
2023-01-25T04:43:38.624Z,103206.03
2023-01-25T04:46:09.912Z,103199.00
2023-01-25T04:48:36.771Z,103199.75
2023-01-25T04:51:06.061Z,103199.59
2023-01-25T04:53:37.190Z,103198.00
2023-01-25T04:56:06.655Z,103199.75
2023-01-25T04:58:41.695Z,103195.19
2023-01-25T05:01:08.967Z,103207.59
2023-01-25T05:03:35.872Z,103206.38
2023-01-25T05:06:04.245Z,103197.81
2023-01-25T05:08:31.034Z,103197.88
2023-01-25T05:11:00.916Z,103189.19
2023-01-25T05:13:47.157Z,103199.97
2023-01-25T05:16:21.791Z,103191.19
2023-01-25T05:18:49.572Z,103194.75
2023-01-25T05:21:49.614Z,103190.97
2023-01-25T05:24:16.499Z,103188.09
2023-01-25T05:27:03.661Z,103183.63
2023-01-25T05:29:57.583Z,103181.75
2023-01-25T05:32:49.430Z,103179.91
2023-01-25T05:35:17.362Z,103173.41
2023-01-25T05:37:45.036Z,103174.47
2023-01-25T05:40:20.540Z,103171.81
2023-01-25T05:42:59.893Z,103160.63
2023-01-25T05:45:30.238Z,103161.94
2023-01-25T05:47:58.341Z,103166.94
2023-01-25T05:50:26.515Z,103165.44
2023-01-25T05:52:59.884Z,103159.41
2023-01-25T05:55:27.824Z,103155.78
2023-01-25T05:57:57.032Z,103160.56
2023-01-25T06:00:24.358Z,103160.84
2023-01-25T06:02:51.235Z,103163.88
2023-01-25T06:05:22.403Z,103163.41
2023-01-25T06:07:49.742Z,103158.47
2023-01-25T06:10:18.581Z,103162.31
2023-01-25T06:12:48.814Z,103170.16
2023-01-25T06:15:15.763Z,103179.69
2023-01-25T06:17:42.824Z,103169.09
2023-01-25T06:20:23.905Z,103171.41
2023-01-25T06:23:18.101Z,103164.31
2023-01-25T06:25:45.229Z,103165.00
2023-01-25T06:28:12.083Z,103159.00
2023-01-25T06:30:38.894Z,103160.41
2023-01-25T06:33:06.598Z,103149.44
2023-01-25T06:35:34.008Z,103157.94
2023-01-25T06:38:01.214Z,103155.03
2023-01-25T06:40:28.949Z,103155.84
2023-01-25T06:42:55.726Z,103148.72
2023-01-25T06:45:22.623Z,103153.69
2023-01-25T06:47:49.829Z,103154.97
2023-01-25T06:50:16.666Z,103152.84
2023-01-25T06:52:43.332Z,103151.41
2023-01-25T06:55:14.162Z,103146.22
2023-01-25T06:57:40.977Z,103150.34
2023-01-25T07:00:08.895Z,103162.28
2023-01-25T07:02:37.167Z,103151.03
2023-01-25T07:05:04.317Z,103164.28
2023-01-25T07:07:31.162Z,103164.00
2023-01-25T07:10:00.511Z,103153.56
2023-01-25T07:12:28.876Z,103156.13
2023-01-25T07:14:55.824Z,103157.47
2023-01-25T07:17:22.736Z,103148.72
2023-01-25T07:19:49.748Z,103156.78
2023-01-25T07:22:18.061Z,103144.75
2023-01-25T07:24:50.056Z,103150.38
2023-01-25T07:27:17.398Z,103144.47
2023-01-25T07:29:44.302Z,103138.47
2023-01-25T07:32:14.624Z,103135.84
2023-01-25T07:34:41.437Z,103130.97
2023-01-25T07:37:09.306Z,103134.53
2023-01-25T07:39:36.714Z,103137.97
2023-01-25T07:42:03.639Z,103140.19
2023-01-25T07:44:32.319Z,103140.19
2023-01-25T07:47:09.305Z,103137.38
2023-01-25T07:49:36.379Z,103136.19
2023-01-25T07:52:03.533Z,103135.41
2023-01-25T07:54:30.390Z,103142.72
2023-01-25T07:56:58.060Z,103129.41
2023-01-25T07:59:25.400Z,103142.19
2023-01-25T08:01:53.483Z,103134.94
2023-01-25T08:04:20.420Z,103138.53
2023-01-25T08:06:47.425Z,103139.44
2023-01-25T08:09:20.329Z,103133.91
2023-01-25T08:11:49.409Z,103138.78
2023-01-25T08:14:16.107Z,103136.06
2023-01-25T08:16:42.926Z,103132.97
2023-01-25T08:19:11.190Z,103138.19
2023-01-25T08:21:38.051Z,103135.09
2023-01-25T08:24:06.763Z,103130.69
2023-01-25T08:26:35.284Z,103122.69
2023-01-25T08:29:02.718Z,103124.25
2023-01-25T08:31:31.454Z,103130.88
2023-01-25T08:34:00.495Z,103119.81
2023-01-25T08:36:28.476Z,103126.50
2023-01-25T08:39:00.641Z,103130.28
2023-01-25T08:41:29.172Z,103124.81
2023-01-25T08:43:56.868Z,103128.47
2023-01-25T08:46:25.595Z,103134.81
2023-01-25T08:48:56.516Z,103125.22
2023-01-25T08:51:24.324Z,103117.22
2023-01-25T08:53:51.034Z,103110.22
2023-01-25T08:56:18.062Z,103113.53
2023-01-25T08:58:46.602Z,103104.81
2023-01-25T09:01:16.219Z,103112.09
2023-01-25T09:03:44.588Z,103112.16
2023-01-25T09:06:18.356Z,103110.84
2023-01-25T09:08:45.251Z,103113.28
2023-01-25T09:11:15.238Z,103105.84
2023-01-25T09:13:45.544Z,103115.69
2023-01-25T09:16:15.525Z,103112.44
2023-01-25T09:18:43.757Z,103115.34
2023-01-25T09:21:16.092Z,103114.38
2023-01-25T09:24:05.655Z,103116.88
2023-01-25T09:26:44.539Z,103107.75
2023-01-25T09:29:14.846Z,103113.53
2023-01-25T09:31:43.945Z,103108.44
2023-01-25T09:34:33.988Z,103114.13
2023-01-25T09:37:00.852Z,103113.50
2023-01-25T09:39:27.745Z,103115.75
2023-01-25T09:42:20.351Z,103105.28
2023-01-25T09:45:04.698Z,103119.53
2023-01-25T09:47:53.153Z,103114.75
2023-01-25T09:50:43.075Z,103112.59
2023-01-25T09:53:24.581Z,103114.97
2023-01-25T09:55:58.863Z,103109.91
2023-01-25T09:58:35.346Z,103101.97
2023-01-25T10:01:17.878Z,103101.09
2023-01-25T10:03:55.622Z,103097.41
2023-01-25T10:06:24.675Z,103087.31
2023-01-25T10:09:19.891Z,103103.63
2023-01-25T10:11:48.087Z,103094.63
2023-01-25T10:14:17.064Z,103087.78
2023-01-25T10:16:53.657Z,103089.69
2023-01-25T10:19:40.647Z,103082.16
2023-01-25T10:22:22.759Z,103095.25
2023-01-25T10:25:12.204Z,103092.81
2023-01-25T10:27:48.014Z,103094.03
2023-01-25T10:30:27.779Z,103094.44
2023-01-25T10:33:00.825Z,103087.47
2023-01-25T10:35:35.848Z,103085.63
2023-01-25T10:38:12.119Z,103087.41
2023-01-25T10:40:51.100Z,103077.38
2023-01-25T10:43:20.985Z,103076.66
2023-01-25T10:45:50.273Z,103070.78
2023-01-25T10:48:29.120Z,103064.28
2023-01-25T10:50:57.742Z,103062.41
2023-01-25T10:53:35.792Z,103042.50
2023-01-25T10:56:17.585Z,103044.34
2023-01-25T10:58:47.173Z,103041.34
2023-01-25T11:01:28.294Z,103030.91
2023-01-25T11:03:55.329Z,103014.91
2023-01-25T11:06:40.006Z,103012.25
2023-01-25T11:09:22.112Z,103013.81
2023-01-25T11:11:57.064Z,103006.34
2023-01-25T11:14:29.569Z,103002.97
2023-01-25T11:16:57.728Z,102984.81
2023-01-25T11:19:32.383Z,102983.75
2023-01-25T11:22:00.817Z,102989.00
2023-01-25T11:24:33.038Z,102981.78
2023-01-25T11:27:26.340Z,102971.63
2023-01-25T11:30:05.474Z,102974.03
2023-01-25T11:32:33.101Z,102974.59
2023-01-25T11:35:00.060Z,102971.19
2023-01-25T11:37:38.909Z,102961.81
2023-01-25T11:40:19.340Z,102953.16
2023-01-25T11:43:04.515Z,102954.22
2023-01-25T11:46:08.918Z,102948.22
2023-01-25T11:49:00.062Z,102931.59
2023-01-25T11:51:30.347Z,102929.31
2023-01-25T11:54:52.683Z,102912.59
2023-01-25T11:57:31.032Z,102902.31
2023-01-25T12:00:12.415Z,102893.69
2023-01-25T12:03:27.777Z,102887.66
2023-01-25T12:06:04.045Z,102888.47
2023-01-25T12:08:59.125Z,102883.53
2023-01-25T12:11:35.369Z,102869.66
2023-01-25T12:14:11.433Z,102872.22
2023-01-25T12:16:53.551Z,102864.88
2023-01-25T12:19:48.012Z,102857.31
2023-01-25T12:22:40.161Z,102846.69
2023-01-25T12:25:34.967Z,102845.38
2023-01-25T12:28:15.176Z,102837.22
2023-01-25T12:31:02.926Z,102838.19
2023-01-25T12:33:45.427Z,102829.25
2023-01-25T12:36:20.517Z,102824.00
2023-01-25T12:38:56.491Z,102823.84
2023-01-25T12:41:46.229Z,102810.56
2023-01-25T12:44:35.933Z,102807.22
2023-01-25T12:47:20.606Z,102797.91
2023-01-25T12:50:23.916Z,102791.44
2023-01-25T12:52:57.877Z,102781.94
2023-01-25T12:55:24.911Z,102777.03
2023-01-25T12:58:08.069Z,102773.44
2023-01-25T13:00:45.713Z,102767.75
2023-01-25T13:03:18.332Z,102763.97
2023-01-25T13:05:45.150Z,102762.44
2023-01-25T13:08:31.010Z,102747.78
2023-01-25T13:11:13.955Z,102741.97
2023-01-25T13:13:40.801Z,102743.69
2023-01-25T13:16:37.268Z,102745.34
2023-01-25T13:19:04.555Z,102727.72
2023-01-25T13:21:37.429Z,102730.06
2023-01-25T13:24:13.359Z,102716.34
2023-01-25T13:26:55.449Z,102719.75
2023-01-25T13:29:40.378Z,102714.69
2023-01-25T13:32:35.235Z,102710.34
2023-01-25T13:35:02.785Z,102709.22
2023-01-25T13:37:31.870Z,102707.84
2023-01-25T13:40:05.965Z,102709.59
2023-01-25T13:42:38.367Z,102701.09
2023-01-25T13:45:08.522Z,102706.00
2023-01-25T13:47:39.790Z,102697.91
2023-01-25T13:50:18.780Z,102696.31
2023-01-25T13:53:15.493Z,102684.84
2023-01-25T13:55:46.596Z,102688.75
2023-01-25T13:58:21.786Z,102683.88
2023-01-25T14:01:08.928Z,102679.16
2023-01-25T14:03:47.301Z,102669.31
2023-01-25T14:06:24.429Z,102682.81
2023-01-25T14:08:52.233Z,102674.75
2023-01-25T14:11:24.149Z,102689.00
2023-01-25T14:14:00.181Z,102679.56
2023-01-25T14:16:30.141Z,102676.38
2023-01-25T14:19:14.219Z,102674.16
2023-01-25T14:21:41.077Z,102672.31
2023-01-25T14:24:11.737Z,102678.72
2023-01-25T14:26:39.456Z,102675.00
2023-01-25T14:29:31.856Z,102681.31
2023-01-25T14:32:00.163Z,102684.81
2023-01-25T14:34:27.403Z,102680.47
2023-01-25T14:37:15.242Z,102685.25
2023-01-25T14:39:42.012Z,102682.56
2023-01-25T14:42:09.123Z,102675.13
2023-01-25T14:44:36.345Z,102674.84
2023-01-25T14:47:23.337Z,102674.91
2023-01-25T14:49:50.495Z,102681.56
2023-01-25T14:52:19.585Z,102689.03
2023-01-25T14:54:55.027Z,102684.00
2023-01-25T14:57:39.317Z,102687.16
2023-01-25T15:00:35.354Z,102669.47
2023-01-25T15:03:05.239Z,102683.97
2023-01-25T15:05:34.299Z,102672.31
2023-01-25T15:08:07.309Z,102672.00
2023-01-25T15:10:38.753Z,102658.06
2023-01-25T15:13:14.654Z,102662.97
2023-01-25T15:15:52.432Z,102653.81
2023-01-25T15:18:45.294Z,102650.41
2023-01-25T15:21:16.273Z,102647.06
2023-01-25T15:23:45.328Z,102643.53
2023-01-25T15:26:19.409Z,102648.53
2023-01-25T15:28:46.589Z,102654.94
2023-01-25T15:31:20.038Z,102640.72
2023-01-25T15:33:47.682Z,102642.44
2023-01-25T15:36:15.052Z,102632.97
2023-01-25T15:38:42.275Z,102631.59
2023-01-25T15:41:10.378Z,102622.31
2023-01-25T15:43:37.381Z,102625.31
2023-01-25T15:46:04.945Z,102628.38
2023-01-25T15:48:37.482Z,102621.34
2023-01-25T15:51:04.594Z,102614.81
2023-01-25T15:53:31.435Z,102614.53
2023-01-25T15:56:05.192Z,102616.84
2023-01-25T15:58:40.113Z,102612.13
2023-01-25T16:01:07.262Z,102613.22
2023-01-25T16:03:34.223Z,102618.91
2023-01-25T16:06:07.883Z,102611.06
2023-01-25T16:08:34.832Z,102603.81
2023-01-25T16:11:01.690Z,102593.91
2023-01-25T16:13:28.498Z,102589.34
2023-01-25T16:15:56.203Z,102597.56
2023-01-25T16:18:22.987Z,102608.09
2023-01-25T16:20:50.310Z,102606.56
2023-01-25T16:23:18.625Z,102609.25
2023-01-25T16:25:48.155Z,102597.00
2023-01-25T16:28:16.045Z,102610.06
2023-01-25T16:30:47.184Z,102618.72
2023-01-25T16:33:14.084Z,102613.06
2023-01-25T16:35:40.932Z,102613.91
2023-01-25T16:38:11.260Z,102615.91
2023-01-25T16:40:39.944Z,102620.34
2023-01-25T16:43:06.743Z,102616.22
2023-01-25T16:45:33.887Z,102614.13
2023-01-25T16:48:02.038Z,102620.06
2023-01-25T16:50:29.150Z,102630.22
2023-01-25T16:52:56.404Z,102630.13
2023-01-25T16:55:23.206Z,102638.50
2023-01-25T16:57:51.483Z,102639.56
2023-01-25T17:00:18.648Z,102651.38
2023-01-25T17:02:58.227Z,102650.56
2023-01-25T17:05:29.165Z,102645.94
2023-01-25T17:07:56.435Z,102648.84
2023-01-25T17:10:23.979Z,102649.47
2023-01-25T17:12:51.298Z,102641.66
2023-01-25T17:15:20.633Z,102648.53
2023-01-25T17:17:47.996Z,102647.00
2023-01-25T17:20:14.859Z,102645.13
2023-01-25T17:22:42.698Z,102646.94
2023-01-25T17:25:09.630Z,102644.06
2023-01-25T17:27:36.459Z,102640.88
2023-01-25T17:30:03.583Z,102638.78
2023-01-25T17:32:30.373Z,102628.06
2023-01-25T17:34:59.213Z,102636.78
2023-01-25T17:37:26.465Z,102623.59
2023-01-25T17:39:53.965Z,102627.94
2023-01-25T17:42:22.364Z,102629.34
2023-01-25T17:44:49.333Z,102613.44
2023-01-25T17:47:16.072Z,102609.00
2023-01-25T17:49:42.975Z,102588.41
2023-01-25T17:53:01.242Z,102583.38
2023-01-25T17:55:29.591Z,102568.44
2023-01-25T17:57:58.857Z,102561.69
2023-01-25T18:00:33.710Z,102559.50
2023-01-25T18:03:06.081Z,102564.97
2023-01-25T18:05:32.820Z,102546.72
2023-01-25T18:07:59.743Z,102549.78
2023-01-25T18:10:26.608Z,102540.06
2023-01-25T18:13:04.005Z,102535.72
2023-01-25T18:15:31.380Z,102520.03
2023-01-25T18:17:58.506Z,102518.22
2023-01-25T18:20:25.315Z,102504.16
2023-01-25T18:22:52.508Z,102486.97
2023-01-25T18:25:28.531Z,102494.75
2023-01-25T18:27:57.363Z,102490.34
2023-01-25T18:30:34.140Z,102481.09
2023-01-25T18:33:01.727Z,102470.00
2023-01-25T18:35:29.360Z,102468.09
2023-01-25T18:37:56.333Z,102456.31
2023-01-25T18:40:23.370Z,102459.81
2023-01-25T18:42:50.721Z,102457.53
2023-01-25T18:45:17.987Z,102445.72
2023-01-25T18:47:44.841Z,102427.88
2023-01-25T18:50:14.104Z,102440.91
2023-01-25T18:52:41.093Z,102446.75
2023-01-25T18:55:08.535Z,102435.59
2023-01-25T18:57:35.603Z,102433.94
2023-01-25T19:00:03.906Z,102426.16
2023-01-25T19:02:30.773Z,102420.38
2023-01-25T19:04:57.825Z,102417.34
2023-01-25T19:07:24.566Z,102406.84
2023-01-25T19:09:51.337Z,102419.13
2023-01-25T19:12:18.253Z,102434.53
2023-01-25T19:14:45.096Z,102431.69
2023-01-25T19:17:12.444Z,102440.84
2023-01-25T19:19:39.369Z,102442.25
2023-01-25T19:22:06.141Z,102435.88
2023-01-25T19:24:33.046Z,102419.88
2023-01-25T19:26:59.933Z,102415.69
2023-01-25T19:29:26.915Z,102413.16
2023-01-25T19:31:53.906Z,102407.47
2023-01-25T19:34:20.956Z,102395.66
2023-01-25T19:36:49.458Z,102393.22
2023-01-25T19:39:17.385Z,102392.16
2023-01-25T19:41:44.180Z,102381.75
2023-01-25T19:44:12.611Z,102370.88
2023-01-25T19:46:39.744Z,102374.31
2023-01-25T19:49:08.734Z,102367.78
2023-01-25T19:51:37.899Z,102351.59
2023-01-25T19:54:07.473Z,102354.06
2023-01-25T19:56:39.686Z,102350.63
2023-01-25T19:59:15.394Z,102363.09
2023-01-25T20:01:46.376Z,102346.44
2023-01-25T20:04:20.373Z,102344.97
2023-01-25T20:06:50.452Z,102342.94
2023-01-25T20:09:18.789Z,102334.53
2023-01-25T20:11:47.524Z,102325.75
2023-01-25T20:14:30.371Z,102331.63
2023-01-25T20:17:03.673Z,102321.69
2023-01-25T20:19:32.970Z,102319.16
2023-01-25T21:02:07.136Z,102314.06
2023-01-25T21:22:19.139Z,102291.41
2023-01-25T21:25:22.921Z,102281.81
2023-01-25T21:27:59.341Z,102282.81
2023-01-25T21:30:28.704Z,102290.97
2023-01-25T22:34:27.433Z,102250.69
2023-01-25T22:36:58.039Z,102254.66
2023-01-25T22:39:28.550Z,102269.63
2023-01-25T22:41:58.012Z,102251.22
2023-01-25T22:44:26.371Z,102249.56
2023-01-25T22:46:57.732Z,102267.03
2023-01-25T22:52:21.090Z,102246.03
2023-01-25T22:57:43.334Z,102254.31
2023-01-25T23:04:00.629Z,102261.47
2023-01-25T23:16:56.407Z,102249.53
2023-01-25T23:19:28.196Z,102242.66
2023-01-25T23:24:49.290Z,102230.28
2023-01-25T23:30:08.106Z,102208.03
2023-01-25T23:35:57.909Z,102217.34
2023-01-25T23:48:23.190Z,102209.22
